Time;durP1;ratioP1;P1;durP2;ratioP2;P2;SDS_P1;SDS_P2;PMS_P1;PMS_P2;Temp;Humidity;BMP_temperature;BMP_pressure;BME280_temperature;BME280_humidity;BME280_pressure;Samples;Min_cycle;Max_cycle;Signal;HPM_P1;HPM_P2
2021/12/04 00:00:29;;;;;;;6.50;5.90;;;;;;;4.00;94.50;99840.94;5032617;28;20179;-70
2021/12/04 00:02:54;;;;;;;6.88;5.85;;;;;;;4.00;94.33;99834.75;5013509;28;20529;-71
2021/12/04 00:05:21;;;;;;;7.13;5.60;;;;;;;4.00;94.25;99834.75;5015633;28;20029;-71
2021/12/04 00:07:47;;;;;;;7.50;5.78;;;;;;;4.01;94.37;99831.84;5014393;28;20042;-71
2021/12/04 00:10:21;;;;;;;7.03;5.70;;;;;;;4.03;94.67;99824.47;5014061;28;20052;-71
2021/12/04 00:12:47;;;;;;;9.50;5.60;;;;;;;4.03;94.15;99815.59;5014507;28;20148;-71
2021/12/04 00:15:13;;;;;;;6.30;5.70;;;;;;;4.03;94.40;99803.03;5028666;28;20464;-70
2021/12/04 00:17:39;;;;;;;6.43;5.40;;;;;;;4.02;94.30;99792.53;5033479;28;20034;-71
2021/12/04 00:20:06;;;;;;;6.43;5.50;;;;;;;4.03;94.48;99789.66;5023904;28;20160;-71
2021/12/04 00:22:31;;;;;;;6.07;5.25;;;;;;;4.03;93.87;99786.97;5014102;28;20065;-71
2021/12/04 00:24:56;;;;;;;7.50;5.38;;;;;;;4.07;94.17;99785.50;5032173;28;20080;-71
2021/12/04 00:27:21;;;;;;;5.70;4.97;;;;;;;4.02;94.06;99793.34;5033430;28;20370;-71
2021/12/04 00:29:47;;;;;;;7.00;4.75;;;;;;;3.98;93.63;99784.09;5033529;28;20057;-71
2021/12/04 00:32:26;;;;;;;6.38;5.53;;;;;;;3.97;93.75;99786.97;5033104;28;20037;-71
2021/12/04 00:35:00;;;;;;;6.40;5.10;;;;;;;4.00;93.87;99786.56;5023282;28;20056;-70
2021/12/04 00:50:49;;;;;;;5.70;5.20;;;;;;;4.02;93.70;99771.94;5046967;28;20047;-70
2021/12/04 00:53:14;;;;;;;6.60;5.50;;;;;;;4.03;94.01;99770.06;5045998;28;20021;-70
2021/12/04 00:55:39;;;;;;;5.72;5.15;;;;;;;3.97;93.57;99766.41;5032916;28;20038;-71
2021/12/04 00:58:05;;;;;;;5.93;5.40;;;;;;;3.98;94.22;99770.69;5033079;28;20029;-71
2021/12/04 01:00:30;;;;;;;7.07;5.57;;;;;;;4.00;94.21;99768.66;5031425;28;20060;-70
2021/12/04 01:02:56;;;;;;;6.63;6.00;;;;;;;4.02;94.56;99771.13;5018524;28;20045;-70
2021/12/04 01:05:21;;;;;;;6.20;5.65;;;;;;;4.03;93.99;99765.56;5037919;28;20029;-71
2021/12/04 01:07:46;;;;;;;6.22;5.63;;;;;;;4.03;94.12;99770.06;5053231;28;20037;-71
2021/12/04 01:10:12;;;;;;;6.88;6.18;;;;;;;4.04;94.17;99763.69;5052737;28;20512;-70
2021/12/04 01:12:38;;;;;;;7.85;6.18;;;;;;;4.03;93.70;99764.72;5052887;28;20105;-70
2021/12/04 01:15:05;;;;;;;7.43;6.50;;;;;;;4.04;94.02;99775.22;5036668;28;20108;-71
2021/12/04 01:17:30;;;;;;;7.05;6.38;;;;;;;4.02;93.76;99784.50;5032281;28;20512;-70
2021/12/04 01:19:55;;;;;;;6.95;6.25;;;;;;;4.06;94.08;99791.91;5035713;28;20121;-71
2021/12/04 01:22:22;;;;;;;7.00;6.30;;;;;;;4.04;94.40;99772.53;5052712;28;20041;-71
2021/12/04 01:24:48;;;;;;;7.10;6.38;;;;;;;4.07;94.28;99776.66;5049837;28;20415;-70
2021/12/04 01:27:14;;;;;;;7.28;6.40;;;;;;;4.11;94.20;99777.91;5032500;28;20044;-70
2021/12/04 01:29:40;;;;;;;6.35;5.75;;;;;;;4.12;94.01;99776.84;5032695;28;20040;-71
2021/12/04 01:32:07;;;;;;;6.97;6.28;;;;;;;4.15;94.11;99767.59;5032210;28;20033;-70
2021/12/04 01:34:34;;;;;;;6.50;5.90;;;;;;;4.14;94.03;99769.44;5034595;28;20056;-71
2021/12/04 01:36:59;;;;;;;6.55;5.95;;;;;;;4.16;94.19;99758.53;5052391;28;20040;-71
2021/12/04 01:39:25;;;;;;;8.93;6.18;;;;;;;4.14;94.22;99748.03;5041339;28;20025;-70
2021/12/04 01:41:50;;;;;;;6.18;5.57;;;;;;;4.17;94.33;99754.84;5032335;28;20029;-70
2021/12/04 01:44:15;;;;;;;6.70;5.97;;;;;;;4.18;94.02;99767.16;5032116;28;20052;-71
2021/12/04 01:46:42;;;;;;;6.50;5.90;;;;;;;4.15;93.85;99762.22;5032374;28;20483;-70
2021/12/04 01:49:07;;;;;;;6.07;5.47;;;;;;;4.13;93.88;99761.63;5032657;28;20026;-71
2021/12/04 01:51:32;;;;;;;6.65;5.88;;;;;;;4.14;94.08;99761.41;5052634;28;20040;-70
2021/12/04 01:53:58;;;;;;;6.57;5.95;;;;;;;4.17;94.35;99752.16;5042881;28;20033;-71
2021/12/04 01:56:23;;;;;;;6.60;5.88;;;;;;;4.19;94.31;99748.22;5032368;28;20029;-71
2021/12/04 01:58:50;;;;;;;6.20;5.60;;;;;;;4.20;93.87;99751.72;5032153;28;20109;-70
2021/12/04 02:01:15;;;;;;;6.45;5.85;;;;;;;4.21;94.02;99758.72;5023273;28;20493;-71
2021/12/04 02:03:41;;;;;;;6.85;5.60;;;;;;;4.21;93.67;99756.88;5012857;28;20182;-70
2021/12/04 02:06:06;;;;;;;6.65;6.05;;;;;;;4.19;93.62;99756.25;5051972;28;20033;-70
2021/12/04 02:08:31;;;;;;;6.80;6.20;;;;;;;4.20;93.80;99759.75;5049112;28;20028;-70
2021/12/04 02:10:59;;;;;;;6.78;6.07;;;;;;;4.17;94.18;99749.47;5035147;28;20029;-70
2021/12/04 02:13:26;;;;;;;7.18;6.28;;;;;;;4.20;94.24;99743.69;5032226;28;20021;-70
2021/12/04 02:15:51;;;;;;;7.38;6.57;;;;;;;4.21;94.52;99729.25;5032108;28;20113;-70
2021/12/04 02:18:19;;;;;;;8.50;6.60;;;;;;;4.18;94.18;99716.28;5014351;28;20029;-70
2021/12/04 02:20:45;;;;;;;7.07;6.30;;;;;;;4.20;93.71;99714.25;5031894;28;20037;-70
2021/12/04 02:23:11;;;;;;;7.15;6.45;;;;;;;4.21;94.14;99708.69;5035586;28;20033;-70
2021/12/04 02:25:37;;;;;;;6.70;6.00;;;;;;;4.24;94.33;99702.91;5052039;28;20079;-70
2021/12/04 02:28:04;;;;;;;7.60;6.88;;;;;;;4.24;94.22;99699.38;5051818;28;20033;-70
2021/12/04 02:30:32;;;;;;;7.68;6.45;;;;;;;4.20;93.76;99696.31;5043422;28;20368;-70
2021/12/04 02:32:58;;;;;;;7.20;6.50;;;;;;;4.23;93.90;99689.72;5031530;28;20056;-70
2021/12/04 02:35:25;;;;;;;9.25;7.18;;;;;;;4.20;93.67;99682.94;5012184;28;20038;-70
2021/12/04 02:37:51;;;;;;;8.68;7.03;;;;;;;4.25;93.78;99682.28;5021207;28;20449;-70
2021/12/04 02:40:21;;;;;;;9.75;7.30;;;;;;;4.22;94.64;99672.00;5031254;28;20045;-70
2021/12/04 02:42:47;;;;;;;7.45;6.75;;;;;;;4.26;94.11;99678.59;5032028;28;20041;-70
2021/12/04 02:45:13;;;;;;;7.57;6.78;;;;;;;4.21;93.90;99670.34;5031548;28;20045;-70
2021/12/04 02:47:39;;;;;;;8.07;6.15;;;;;;;4.23;93.79;99673.66;5031973;28;20448;-70
2021/12/04 02:50:07;;;;;;;8.85;7.22;;;;;;;4.23;93.96;99668.31;5010557;28;20030;-70
2021/12/04 02:52:33;;;;;;;8.02;7.18;;;;;;;4.23;93.78;99674.47;5029061;28;20044;-70
2021/12/04 02:54:59;;;;;;;7.68;6.80;;;;;;;4.24;94.06;99675.28;5031052;28;20431;-70
2021/12/04 02:57:26;;;;;;;8.32;7.03;;;;;;;4.24;93.92;99669.91;5031474;28;20041;-70
2021/12/04 02:59:53;;;;;;;8.35;6.70;;;;;;;4.28;93.90;99678.38;5032498;28;20037;-70
2021/12/04 03:02:23;;;;;;;8.15;6.68;;;;;;;4.28;93.72;99679.19;5030687;28;20448;-70
2021/12/04 03:04:57;;;;;;;7.53;6.60;;;;;;;4.29;93.69;99674.63;5035291;28;20036;-70
2021/12/04 03:07:23;;;;;;;7.05;6.35;;;;;;;4.25;94.17;99674.25;5035016;28;20037;-70
2021/12/04 03:09:49;;;;;;;7.97;7.18;;;;;;;4.26;93.58;99676.72;5034627;28;20033;-70
2021/12/04 03:12:18;;;;;;;7.28;6.57;;;;;;;4.22;93.74;99661.28;5034961;28;20040;-70
2021/12/04 03:14:43;;;;;;;7.68;6.93;;;;;;;4.30;93.98;99662.91;5034787;28;20032;-70
2021/12/04 03:17:09;;;;;;;7.22;6.53;;;;;;;4.30;93.28;99653.00;5034834;28;20025;-70
2021/12/04 03:19:35;;;;;;;8.38;6.72;;;;;;;4.32;94.11;99655.47;5035036;28;20052;-70
2021/12/04 03:22:02;;;;;;;7.07;6.38;;;;;;;4.32;93.46;99656.31;5026295;28;20030;-70
2021/12/04 03:24:28;;;;;;;6.93;6.25;;;;;;;4.30;93.15;99658.34;5019466;28;20104;-70
2021/12/04 03:26:55;;;;;;;7.80;6.05;;;;;;;4.33;93.39;99659.78;5034623;28;20034;-70
2021/12/04 03:29:23;;;;;;;6.63;6.03;;;;;;;4.31;93.16;99656.53;5016905;28;20115;-70
2021/12/04 03:42:31;;;;;;;5.38;4.88;;;;;;;4.32;93.67;99640.25;5034484;28;20041;-70
2021/12/04 03:44:56;;;;;;;5.75;4.75;;;;;;;4.34;93.66;99637.34;5034043;28;20389;-70
2021/12/04 03:47:21;;;;;;;5.40;4.90;;;;;;;4.35;93.34;99631.78;5032494;28;20048;-70
2021/12/04 03:49:48;;;;;;;4.90;4.50;;;;;;;4.34;93.52;99627.44;5034540;28;20120;-70
2021/12/04 03:52:14;;;;;;;5.03;4.20;;;;;;;4.34;93.71;99624.75;5033369;28;20033;-70
2021/12/04 03:54:40;;;;;;;5.40;4.68;;;;;;;4.35;93.09;99623.75;5034072;28;20061;-70
2021/12/04 03:57:06;;;;;;;4.40;4.10;;;;;;;4.35;92.71;99615.69;5033665;28;20118;-70
2021/12/04 03:59:34;;;;;;;5.00;4.60;;;;;;;4.38;92.96;99617.94;5033907;28;20040;-70
2021/12/04 04:01:59;;;;;;;5.65;4.20;;;;;;;4.38;93.17;99617.94;5019606;28;20057;-70
2021/12/04 04:04:24;;;;;;;4.30;3.90;;;;;;;4.36;93.39;99622.72;5033729;28;20033;-70
2021/12/04 04:06:50;;;;;;;4.70;4.10;;;;;;;4.36;93.12;99628.06;5032974;28;20028;-70
2021/12/04 04:09:16;;;;;;;4.22;3.70;;;;;;;4.38;93.09;99625.19;5015735;28;20040;-70
2021/12/04 04:11:41;;;;;;;4.03;3.67;;;;;;;4.35;93.09;99615.69;5033789;28;20439;-70
2021/12/04 04:14:07;;;;;;;4.28;3.88;;;;;;;4.35;93.23;99612.19;5033154;28;20025;-70
2021/12/04 04:16:35;;;;;;;4.32;3.90;;;;;;;4.36;93.15;99612.00;5033661;28;20067;-70
2021/12/04 04:19:01;;;;;;;4.10;3.70;;;;;;;4.36;93.48;99603.13;5032735;28;20021;-70
2021/12/04 04:21:26;;;;;;;3.50;3.20;;;;;;;4.38;92.97;99601.88;5033276;28;20483;-70
2021/12/04 04:23:51;;;;;;;5.47;3.58;;;;;;;4.38;93.17;99601.06;5032712;28;20029;-70
2021/12/04 04:26:17;;;;;;;6.00;3.90;;;;;;;4.39;93.03;99597.34;5033380;28;20037;-70
2021/12/04 04:28:42;;;;;;;4.13;3.72;;;;;;;4.36;92.87;99598.59;5033721;28;20079;-70
2021/12/04 04:31:09;;;;;;;3.70;3.40;;;;;;;4.40;92.96;99605.16;5033804;28;20040;-70
2021/12/04 04:33:38;;;;;;;3.92;3.63;;;;;;;4.39;93.09;99591.97;5033535;28;20506;-70
2021/12/04 04:36:30;;;;;;;3.92;3.42;;;;;;;4.41;93.21;99587.25;5033614;28;20080;-70
2021/12/04 05:11:18;;;;;;;3.00;2.80;;;;;;;4.40;92.95;99573.00;5032523;28;20053;-70
2021/12/04 05:13:44;;;;;;;2.90;2.70;;;;;;;4.39;92.72;99578.59;5032390;28;20091;-70
2021/12/04 05:16:12;;;;;;;3.15;2.88;;;;;;;4.38;92.92;99563.56;5032380;28;20108;-70
2021/12/04 05:18:41;;;;;;;4.35;2.90;;;;;;;4.36;92.77;99555.75;5032505;28;20457;-70
2021/12/04 05:21:08;;;;;;;2.90;2.70;;;;;;;4.39;92.53;99560.69;5032571;28;20033;-70
2021/12/04 05:23:48;;;;;;;2.80;2.60;;;;;;;4.38;92.84;99551.00;5032223;28;20029;-70
2021/12/04 05:26:19;;;;;;;2.92;2.72;;;;;;;4.38;92.79;99548.31;5032346;28;20131;-70
2021/12/04 05:28:46;;;;;;;3.05;2.78;;;;;;;4.36;92.42;99555.75;5032576;28;20045;-70
2021/12/04 05:31:11;;;;;;;2.90;2.70;;;;;;;4.36;93.02;99560.28;5032368;28;20083;-70
2021/12/04 05:33:37;;;;;;;3.38;2.60;;;;;;;4.37;92.91;99554.69;5032236;28;20061;-70
2021/12/04 05:36:04;;;;;;;2.58;2.38;;;;;;;4.39;92.89;99554.47;5024392;28;20120;-69
2021/12/04 05:38:29;;;;;;;4.15;2.50;;;;;;;4.37;93.46;99560.06;5032025;28;20037;-69
2021/12/04 05:40:55;;;;;;;2.80;2.60;;;;;;;4.40;93.35;99562.28;5032177;28;20037;-70
2021/12/04 05:43:22;;;;;;;4.50;2.70;;;;;;;4.42;93.54;99560.25;5031484;28;20104;-70
2021/12/04 05:45:54;;;;;;;2.72;2.53;;;;;;;4.42;93.29;99557.56;5032507;28;20045;-70
2021/12/04 05:49:09;;;;;;;2.92;2.60;;;;;;;4.43;92.82;99559.19;5031905;28;20033;-71
2021/12/04 05:56:16;;;;;;;2.97;2.67;;;;;;;4.48;92.81;99550.50;5031964;28;20473;-70
2021/12/04 05:58:42;;;;;;;2.83;2.63;;;;;;;4.50;92.98;99540.41;5032181;28;20040;-70
2021/12/04 06:01:08;;;;;;;3.55;3.13;;;;;;;4.51;92.81;99542.03;5025392;28;20124;-70
2021/12/04 06:03:34;;;;;;;3.25;2.95;;;;;;;4.52;92.82;99553.59;5014380;28;20036;-70
2021/12/04 06:06:00;;;;;;;3.20;2.90;;;;;;;4.53;92.75;99549.84;5032057;28;20480;-70
2021/12/04 06:08:26;;;;;;;3.33;2.72;;;;;;;4.49;92.57;99549.47;5031807;28;20064;-70
2021/12/04 06:10:52;;;;;;;3.40;3.10;;;;;;;4.51;92.74;99543.91;5032062;28;20069;-70
2021/12/04 06:13:17;;;;;;;3.88;3.00;;;;;;;4.52;93.13;99534.81;5032110;28;20025;-70
2021/12/04 06:15:43;;;;;;;3.42;3.00;;;;;;;4.48;92.82;99536.28;5031577;28;20032;-70
2021/12/04 06:18:09;;;;;;;3.10;2.90;;;;;;;4.50;92.86;99528.84;5031706;28;20092;-70
2021/12/04 06:23:20;;;;;;;3.20;2.90;;;;;;;4.55;92.60;99537.06;5032099;28;20167;-70
2021/12/04 06:25:45;;;;;;;3.10;2.90;;;;;;;4.52;92.57;99534.81;5031693;28;20480;-70
2021/12/04 06:28:11;;;;;;;3.55;3.25;;;;;;;4.55;92.80;99542.44;5032178;28;20274;-70
2021/12/04 06:30:38;;;;;;;3.53;3.20;;;;;;;4.55;92.89;99537.88;5031613;28;20033;-70
2021/12/04 06:33:07;;;;;;;5.13;3.20;;;;;;;4.56;92.41;99533.34;5032164;28;20041;-70
2021/12/04 06:35:36;;;;;;;6.00;3.45;;;;;;;4.58;92.66;99542.00;5035043;28;20026;-70
2021/12/04 06:38:02;;;;;;;3.40;2.97;;;;;;;4.58;92.44;99534.75;5035856;28;20040;-70
2021/12/04 06:40:27;;;;;;;3.15;2.90;;;;;;;4.57;92.73;99549.19;5035056;28;20030;-70
2021/12/04 06:42:55;;;;;;;3.60;3.15;;;;;;;4.58;92.73;99539.31;5035485;28;20065;-70
2021/12/04 06:45:21;;;;;;;3.53;3.22;;;;;;;4.58;92.73;99542.00;5035195;28;20060;-70
2021/12/04 06:47:52;;;;;;;3.65;2.92;;;;;;;4.60;92.62;99545.25;5035773;28;20520;-70
2021/12/04 06:53:20;;;;;;;3.65;3.10;;;;;;;4.58;92.49;99537.44;5004316;28;20631;-70
2021/12/04 06:55:49;;;;;;;6.07;2.97;;;;;;;4.60;92.75;99542.59;5035263;28;20036;-70
2021/12/04 06:58:14;;;;;;;4.53;3.00;;;;;;;4.62;92.72;99553.94;5035262;28;20038;-70
2021/12/04 07:00:40;;;;;;;3.42;3.13;;;;;;;4.56;92.24;99558.28;5031899;28;20628;-71
2021/12/04 07:03:06;;;;;;;4.57;3.20;;;;;;;4.58;92.59;99550.03;5034938;28;20388;-70
2021/12/04 07:05:31;;;;;;;3.67;3.38;;;;;;;4.57;92.76;99541.16;5035138;28;20033;-70
2021/12/04 07:07:57;;;;;;;3.30;2.97;;;;;;;4.59;92.50;99547.13;5035026;28;20021;-70
2021/12/04 07:10:22;;;;;;;3.75;3.38;;;;;;;4.59;92.77;99543.66;5034831;28;20033;-70
2021/12/04 07:12:51;;;;;;;3.45;3.15;;;;;;;4.58;92.87;99545.47;5035240;28;20515;-70
2021/12/04 07:15:16;;;;;;;3.75;3.33;;;;;;;4.58;92.63;99547.34;5034473;28;20032;-70
2021/12/04 07:17:42;;;;;;;3.70;3.40;;;;;;;4.57;93.06;99540.34;5035172;28;20038;-70
2021/12/04 07:20:08;;;;;;;4.10;3.42;;;;;;;4.60;92.86;99545.25;5034827;28;20026;-70
2021/12/04 07:22:34;;;;;;;8.27;3.50;;;;;;;4.60;92.73;99547.94;5017085;28;20044;-70
2021/12/04 07:25:00;;;;;;;4.22;3.40;;;;;;;4.61;92.59;99538.88;5034511;28;20385;-70
2021/12/04 07:27:27;;;;;;;4.53;3.10;;;;;;;4.62;92.92;99543.22;5034384;28;20034;-70
2021/12/04 07:29:53;;;;;;;3.83;3.53;;;;;;;4.64;92.39;99543.81;5034916;28;20056;-70
2021/12/04 07:32:18;;;;;;;5.50;3.67;;;;;;;4.62;92.70;99535.16;5034638;28;20381;-70
2021/12/04 07:34:43;;;;;;;4.68;3.47;;;;;;;4.63;92.89;99538.66;5034222;28;20105;-70
2021/12/04 07:37:09;;;;;;;3.80;3.50;;;;;;;4.64;92.88;99534.94;5034919;28;20033;-71
2021/12/04 07:39:34;;;;;;;3.92;3.53;;;;;;;4.63;92.96;99536.78;5034616;28;20041;-70
2021/12/04 07:41:59;;;;;;;4.57;3.50;;;;;;;4.64;92.83;99534.94;5034485;28;20342;-70
2021/12/04 07:44:25;;;;;;;4.43;3.67;;;;;;;4.67;92.42;99527.28;5033937;28;20076;-70
2021/12/04 07:46:50;;;;;;;4.20;3.65;;;;;;;4.65;93.11;99526.69;5016296;28;20026;-70
2021/12/04 07:49:15;;;;;;;3.80;3.50;;;;;;;4.67;93.04;99523.78;5014954;28;20119;-73
2021/12/04 07:51:41;;;;;;;5.00;3.70;;;;;;;4.68;92.86;99520.91;5033632;28;20114;-73
2021/12/04 07:54:06;;;;;;;4.15;3.60;;;;;;;4.68;92.67;99520.91;5016589;28;20064;-71
2021/12/04 07:56:31;;;;;;;3.35;3.05;;;;;;;4.71;92.38;99531.19;5034196;28;20032;-73
2021/12/04 07:58:58;;;;;;;4.80;3.50;;;;;;;4.69;92.56;99519.03;5016614;28;20032;-73
2021/12/04 08:01:24;;;;;;;4.82;3.80;;;;;;;4.70;92.57;99513.44;5024233;28;20049;-72
2021/12/04 08:03:49;;;;;;;3.42;3.13;;;;;;;4.70;92.27;99524.16;5014377;28;20045;-72
2021/12/04 08:06:14;;;;;;;4.95;3.78;;;;;;;4.70;92.73;99513.44;5014076;28;20034;-73
2021/12/04 08:08:40;;;;;;;6.60;3.85;;;;;;;4.72;92.66;99516.72;5013807;28;20136;-73
2021/12/04 08:11:05;;;;;;;5.22;4.07;;;;;;;4.71;92.26;99519.63;5014265;28;20354;-74
2021/12/04 08:13:31;;;;;;;4.13;3.70;;;;;;;4.74;92.68;99516.50;5014047;28;20041;-73
2021/12/04 08:15:57;;;;;;;4.95;3.90;;;;;;;4.72;92.93;99500.63;5014114;28;20117;-74
2021/12/04 08:18:23;;;;;;;4.03;3.63;;;;;;;4.75;92.41;99497.50;5013162;28;20030;-74
2021/12/04 08:20:48;;;;;;;4.93;3.97;;;;;;;4.74;92.66;99487.84;5012653;28;20377;-74
2021/12/04 08:23:14;;;;;;;4.43;3.80;;;;;;;4.75;92.57;99489.47;5011853;28;20034;-74
2021/12/04 08:25:39;;;;;;;7.30;4.35;;;;;;;4.77;92.50;99484.72;5013779;28;20049;-74
2021/12/04 08:28:06;;;;;;;6.40;4.05;;;;;;;4.77;92.75;99487.41;5013667;28;20030;-73
2021/12/04 08:30:36;;;;;;;4.47;3.80;;;;;;;4.79;92.48;99489.88;5013697;28;20033;-73
2021/12/04 08:33:01;;;;;;;5.80;4.22;;;;;;;4.83;92.31;99484.88;5014008;28;20026;-73
2021/12/04 08:35:30;;;;;;;5.38;4.20;;;;;;;4.81;92.87;99476.25;5012976;28;20091;-73
2021/12/04 08:37:58;;;;;;;4.07;3.67;;;;;;;4.81;92.95;99479.75;5013851;28;20029;-74
2021/12/04 08:40:26;;;;;;;4.88;4.15;;;;;;;4.80;92.72;99470.06;5013303;28;20060;-74
2021/12/04 08:42:52;;;;;;;4.10;3.70;;;;;;;4.84;92.47;99473.13;5013712;28;20124;-73
2021/12/04 08:45:18;;;;;;;4.18;3.78;;;;;;;4.84;93.06;99465.09;5013374;28;20520;-74
2021/12/04 08:47:45;;;;;;;4.53;4.13;;;;;;;4.83;92.95;99461.59;5013466;28;20030;-74
2021/12/04 08:50:21;;;;;;;4.65;3.60;;;;;;;4.87;92.60;99459.28;5019588;28;20045;-73
2021/12/04 08:52:47;;;;;;;5.25;3.65;;;;;;;4.87;92.55;99451.25;5033305;28;20053;-74
2021/12/04 08:55:14;;;;;;;5.35;4.10;;;;;;;4.89;92.78;99454.50;5033279;28;20064;-74
2021/12/04 08:57:40;;;;;;;4.90;4.40;;;;;;;4.88;92.21;99440.28;5030782;28;20567;-73
2021/12/04 09:00:09;;;;;;;9.45;4.25;;;;;;;4.93;92.53;99445.00;5013680;28;20128;-73
2021/12/04 09:02:35;;;;;;;4.40;4.00;;;;;;;4.93;92.29;99461.06;5009526;28;20059;-73
2021/12/04 09:05:01;;;;;;;4.82;3.75;;;;;;;4.94;92.38;99468.91;5013573;28;20116;-74
2021/12/04 09:07:28;;;;;;;4.10;3.70;;;;;;;4.99;92.05;99467.41;5032749;28;20116;-76
2021/12/04 09:09:56;;;;;;;4.60;4.05;;;;;;;4.99;92.62;99456.69;5032900;28;20056;-74
2021/12/04 09:12:24;;;;;;;4.30;3.90;;;;;;;5.06;92.55;99460.94;5029646;28;20041;-74
2021/12/04 09:14:50;;;;;;;5.55;4.20;;;;;;;5.10;92.17;99456.78;5025840;28;20041;-75
2021/12/04 09:17:16;;;;;;;5.05;4.20;;;;;;;5.12;92.48;99456.56;5032441;28;20033;-75
2021/12/04 09:19:42;;;;;;;7.07;4.00;;;;;;;5.13;92.23;99452.81;5032639;28;20025;-73
2021/12/04 09:22:14;;;;;;;5.78;4.90;;;;;;;5.12;91.61;99441.28;5033157;28;20033;-73
2021/12/04 09:24:42;;;;;;;5.68;4.70;;;;;;;5.18;91.89;99433.38;5045311;28;20029;-73
2021/12/04 09:27:31;;;;;;;6.95;4.57;;;;;;;5.18;91.46;99428.84;5052754;28;20124;-73
2021/12/04 10:02:35;;;;;;;12.30;5.57;;;;;;;5.26;91.05;99415.09;5024533;28;20103;-76
2021/12/04 10:05:23;;;;;;;6.65;5.70;;;;;;;5.19;90.59;99421.59;5011368;28;20030;-76
2021/12/04 10:22:01;;;;;;;7.82;5.72;;;;;;;5.28;90.96;99407.69;5015942;28;20042;-76
2021/12/04 10:24:42;;;;;;;7.63;5.70;;;;;;;5.27;91.22;99410.59;4998871;28;20034;-78
2021/12/04 10:32:58;;;;;;;11.88;6.03;;;;;;;5.30;91.87;99386.00;5012200;28;20172;-77
2021/12/04 10:35:24;;;;;;;10.68;6.13;;;;;;;5.26;91.69;99377.56;5015323;28;20516;-74
2021/12/04 10:37:58;;;;;;;9.32;6.32;;;;;;;5.29;91.24;99370.94;4996475;28;20117;-76
2021/12/04 10:40:34;;;;;;;9.82;6.38;;;;;;;5.33;91.65;99375.63;4998455;28;20037;-74
2021/12/04 10:43:02;;;;;;;8.90;6.05;;;;;;;5.34;91.60;99371.06;5016195;28;20026;-75
2021/12/04 10:45:34;;;;;;;9.55;6.00;;;;;;;5.38;91.33;99366.88;4998937;28;20088;-76
2021/12/04 10:48:03;;;;;;;9.75;6.60;;;;;;;5.37;91.38;99357.19;5015345;28;20092;-75
2021/12/04 10:50:44;;;;;;;10.02;6.30;;;;;;;5.33;91.24;99358.72;5015646;28;20472;-75
2021/12/04 10:53:17;;;;;;;7.95;5.97;;;;;;;5.34;90.90;99354.97;5014719;28;20037;-74
2021/12/04 11:04:10;;;;;;;9.68;6.30;;;;;;;5.44;91.42;99325.72;5014902;28;20117;-77
2021/12/04 11:06:51;;;;;;;7.75;6.03;;;;;;;5.47;91.49;99319.91;5015132;28;20025;-73
2021/12/04 11:21:39;;;;;;;10.25;5.80;;;;;;;5.70;91.27;99302.22;5013746;28;20088;-78
2021/12/04 11:40:48;;;;;;;6.72;5.13;;;;;;;5.83;90.40;99288.59;5014701;28;20050;-77
2021/12/04 11:43:19;;;;;;;8.98;5.25;;;;;;;5.83;90.23;99288.59;5031414;28;20052;-75
2021/12/04 11:48:38;;;;;;;8.23;5.25;;;;;;;5.82;90.13;99284.25;4972737;28;20040;-78
2021/12/04 11:51:09;;;;;;;7.30;5.85;;;;;;;5.82;90.67;99281.56;5016660;28;20029;-78
2021/12/04 11:53:35;;;;;;;;;;;;;;;5.91;90.83;99270.50;5020917;28;20033;-80
2021/12/04 11:56:00;;;;;;;7.10;5.87;;;;;;;5.80;90.54;99272.13;5013331;28;20363;-78
2021/12/04 11:58:27;;;;;;;7.30;5.78;;;;;;;5.79;91.07;99270.50;5014219;28;20304;-78
2021/12/04 12:00:58;;;;;;;8.02;6.30;;;;;;;5.77;90.41;99270.72;5011936;28;20423;-78
2021/12/04 12:03:32;;;;;;;9.35;6.10;;;;;;;5.77;90.79;99262.69;5029186;28;20045;-75
2021/12/04 12:06:05;;;;;;;7.57;6.78;;;;;;;5.76;90.74;99258.34;5013628;28;20041;-74
2021/12/04 12:08:37;;;;;;;11.20;6.38;;;;;;;5.77;90.97;99257.31;5016163;28;20022;-73
2021/12/04 12:11:07;;;;;;;7.85;6.30;;;;;;;5.76;90.97;99255.66;5032652;28;20060;-73
2021/12/04 12:13:43;;;;;;;7.50;6.50;;;;;;;5.76;90.80;99263.72;5025169;28;20042;-75
2021/12/04 12:16:13;;;;;;;6.95;6.25;;;;;;;5.78;90.43;99260.81;4996656;28;20022;-74
2021/12/04 12:18:44;;;;;;;6.75;6.07;;;;;;;5.78;91.40;99253.59;5022747;28;20030;-74
2021/12/04 12:21:13;;;;;;;8.73;6.75;;;;;;;5.78;91.74;99252.75;5020731;28;20492;-74
2021/12/04 12:27:10;;;;;;;6.78;6.05;;;;;;;5.77;91.43;99248.44;5014031;28;20053;-75
2021/12/04 12:38:06;;;;;;;;;;;;;;;5.79;91.08;99259.75;5011149;28;20095;-78
2021/12/04 12:40:32;;;;;;;10.27;6.35;;;;;;;5.71;91.46;99262.78;5029692;28;19917;-77
2021/12/04 12:43:12;;;;;;;7.30;6.13;;;;;;;5.68;91.97;99264.88;5013713;28;20052;-76
2021/12/04 12:45:38;;;;;;;8.55;6.60;;;;;;;5.63;91.59;99263.94;5013701;28;20045;-77
2021/12/04 12:48:07;;;;;;;10.77;7.68;;;;;;;5.62;92.62;99265.00;5011995;28;20038;-78
2021/12/04 12:50:42;;;;;;;13.07;8.00;;;;;;;5.59;93.15;99263.59;5007984;28;20079;-76
2021/12/04 12:53:44;;;;;;;10.40;8.85;;;;;;;5.60;93.30;99256.34;5001126;28;20045;-81
2021/12/04 12:56:12;;;;;;;13.27;10.95;;;;;;;5.55;93.24;99256.22;5028723;28;20021;-76
2021/12/04 12:58:43;;;;;;;14.98;11.20;;;;;;;5.50;93.34;99249.69;5013147;28;20099;-78
2021/12/04 13:12:48;;;;;;;16.88;14.82;;;;;;;5.59;93.63;99247.50;5012822;28;20496;-79
2021/12/04 13:15:39;;;;;;;17.10;13.07;;;;;;;5.60;93.75;99240.25;5012801;28;20030;-80
2021/12/04 13:18:10;;;;;;;14.98;12.85;;;;;;;5.57;93.42;99240.72;5013152;28;20100;-77
2021/12/04 13:21:30;;;;;;;17.00;12.60;;;;;;;5.59;93.72;99239.44;5012913;28;20053;-82
2021/12/04 13:30:25;;;;;;;13.20;11.10;;;;;;;5.49;93.07;99237.31;5009353;28;20069;-79
2021/12/04 13:32:52;;;;;;;13.65;10.68;;;;;;;5.51;92.95;99239.78;5012173;28;20058;-84
2021/12/04 13:38:38;;;;;;;13.68;9.43;;;;;;;5.41;93.17;99229.63;5012475;28;20050;-85
2021/12/04 13:41:04;;;;;;;12.73;10.75;;;;;;;5.41;93.62;99231.50;5012520;28;20030;-81
2021/12/04 13:43:29;;;;;;;14.60;9.68;;;;;;;5.43;93.70;99232.88;4990862;28;20018;-77
2021/12/04 13:49:20;;;;;;;;;;;;;;;5.55;93.18;99237.44;5003987;28;20097;-82
2021/12/04 13:51:57;;;;;;;10.98;9.07;;;;;;;5.47;93.10;99242.09;5012134;28;19920;-79
2021/12/04 13:54:25;;;;;;;12.45;8.90;;;;;;;5.44;93.69;99241.75;5012261;28;20034;-76
2021/12/04 13:56:51;;;;;;;12.00;9.90;;;;;;;5.43;93.82;99248.97;4994649;28;20045;-74
2021/12/04 13:59:22;;;;;;;11.95;10.05;;;;;;;5.45;94.85;99235.31;4995124;28;20030;-75
2021/12/04 14:01:48;;;;;;;12.70;9.65;;;;;;;5.47;94.50;99231.38;5009322;28;20092;-75
2021/12/04 14:04:17;;;;;;;12.30;10.10;;;;;;;5.48;94.31;99224.97;5012287;28;20034;-78
2021/12/04 14:06:55;;;;;;;12.50;10.18;;;;;;;5.49;94.26;99233.81;5010730;28;20042;-77
2021/12/04 14:09:24;;;;;;;12.68;10.20;;;;;;;5.45;94.67;99233.47;5011995;28;20037;-75
2021/12/04 14:11:52;;;;;;;14.55;11.63;;;;;;;5.43;94.42;99238.25;5012145;28;20449;-77
2021/12/04 14:14:22;;;;;;;13.65;10.80;;;;;;;5.43;94.56;99242.78;5012443;28;20030;-76
2021/12/04 14:16:51;;;;;;;12.55;10.63;;;;;;;5.46;94.64;99240.47;5011828;28;20034;-77
2021/12/04 14:19:21;;;;;;;13.50;11.10;;;;;;;5.48;94.48;99248.28;5012505;28;20041;-78
2021/12/04 14:22:11;;;;;;;14.23;10.93;;;;;;;5.48;94.74;99243.75;5012225;28;20045;-77
2021/12/04 14:24:42;;;;;;;12.60;10.38;;;;;;;5.48;94.62;99241.06;5012253;28;20081;-76
2021/12/04 14:27:10;;;;;;;12.80;10.30;;;;;;;5.48;94.35;99250.97;4994684;28;20076;-76
2021/12/04 14:29:41;;;;;;;11.57;8.63;;;;;;;5.46;93.85;99259.25;5012519;28;20060;-76
2021/12/04 14:32:08;;;;;;;13.52;9.57;;;;;;;5.48;93.86;99261.69;5011426;28;20058;-77
2021/12/04 14:34:34;;;;;;;12.88;9.80;;;;;;;5.42;94.34;99260.78;5012176;28;20521;-78
2021/12/04 14:37:00;;;;;;;12.93;9.80;;;;;;;5.45;94.54;99273.72;5011332;28;20117;-76
2021/12/04 14:39:26;;;;;;;12.48;8.52;;;;;;;5.41;94.89;99274.41;5011847;28;20030;-78
2021/12/04 14:41:51;;;;;;;12.05;8.38;;;;;;;5.43;94.00;99278.47;5011722;28;20038;-76
2021/12/04 14:44:16;;;;;;;12.73;8.00;;;;;;;5.44;93.77;99273.94;4993963;28;20045;-75
2021/12/04 14:46:42;;;;;;;10.52;7.60;;;;;;;5.41;93.93;99285.16;5011265;28;20520;-75
2021/12/04 14:49:10;;;;;;;11.50;7.97;;;;;;;5.42;93.58;99290.28;5011228;28;20026;-78
2021/12/04 14:51:35;;;;;;;9.77;7.68;;;;;;;5.37;94.50;99292.81;5011599;28;20388;-80
2021/12/04 14:54:01;;;;;;;9.65;7.10;;;;;;;5.39;94.58;99298.78;5011252;28;20034;-77
2021/12/04 14:56:29;;;;;;;14.15;9.48;;;;;;;5.40;93.76;99300.41;5015050;28;20026;-75
2021/12/04 14:58:55;;;;;;;9.90;7.13;;;;;;;5.42;93.87;99305.53;5015183;28;20042;-77
2021/12/04 15:01:23;;;;;;;8.88;5.95;;;;;;;5.41;93.62;99323.50;4994694;28;21089;-77